Time;durP1;ratioP1;P1;durP2;ratioP2;P2;SDS_P1;SDS_P2;PMS_P1;PMS_P2;Temp;Humidity;BMP_temperature;BMP_pressure;BME280_temperature;BME280_humidity;BME280_pressure;Samples;Min_cycle;Max_cycle;Signal;HPM_P1;HPM_P2
2023/06/07 00:00:53;;;;;;;0.10;0.10;;;13.30;99.90;;;;;;5002204;28;20048;-65
2023/06/07 00:03:19;;;;;;;1.35;1.25;;;13.30;99.90;;;;;;5012825;28;20474;-65
2023/06/07 00:05:45;;;;;;;0.17;0.17;;;13.40;99.90;;;;;;5004140;28;20037;-65
2023/06/07 00:08:11;;;;;;;0.10;0.10;;;13.40;99.90;;;;;;5002509;28;20049;-65
2023/06/07 00:10:36;;;;;;;1.85;1.75;;;13.40;99.90;;;;;;5012324;28;20053;-65
2023/06/07 00:13:03;;;;;;;1.98;1.17;;;13.40;99.90;;;;;;5009518;28;20038;-65
2023/06/07 00:15:29;;;;;;;0.00;0.00;;;13.30;99.90;;;;;;5010605;28;20132;-65
2023/06/07 00:17:59;;;;;;;0.00;0.00;;;13.40;99.90;;;;;;5009785;28;20034;-65
2023/06/07 00:20:26;;;;;;;0.00;0.00;;;13.40;99.90;;;;;;5010022;28;20060;-65
2023/06/07 00:22:55;;;;;;;0.00;0.00;;;13.40;99.90;;;;;;5009674;28;20046;-65
2023/06/07 00:25:21;;;;;;;1.13;0.90;;;13.40;99.90;;;;;;5010626;28;20045;-65
2023/06/07 00:27:47;;;;;;;1.85;0.38;;;13.30;99.90;;;;;;5011445;28;20080;-65
2023/06/07 00:30:13;;;;;;;1.30;1.23;;;13.40;99.90;;;;;;5012467;28;20042;-65
2023/06/07 00:32:38;;;;;;;0.98;0.45;;;13.50;99.90;;;;;;5004224;28;20037;-65
2023/06/07 00:35:07;;;;;;;0.22;0.22;;;13.40;99.90;;;;;;5009744;28;20046;-65
2023/06/07 00:37:33;;;;;;;0.10;0.10;;;13.40;99.90;;;;;;5000585;28;20038;-65
2023/06/07 00:39:58;;;;;;;1.10;0.80;;;13.40;99.90;;;;;;5009122;28;20383;-65
2023/06/07 00:42:24;;;;;;;0.43;0.32;;;13.40;99.90;;;;;;5011505;28;20444;-65
2023/06/07 00:44:50;;;;;;;0.00;0.00;;;13.30;99.90;;;;;;5006473;28;20053;-65
2023/06/07 00:47:16;;;;;;;6.03;0.45;;;13.30;99.90;;;;;;4996905;28;20038;-65
2023/06/07 00:49:43;;;;;;;0.10;0.10;;;13.30;99.90;;;;;;5011895;28;20041;-65
2023/06/07 00:52:10;;;;;;;0.80;0.75;;;13.30;99.90;;;;;;5006272;28;20050;-65
2023/06/07 00:54:35;;;;;;;5.47;1.10;;;13.40;99.90;;;;;;5000901;28;20042;-65
2023/06/07 00:57:02;;;;;;;0.03;0.03;;;13.30;99.90;;;;;;5008122;28;20072;-65
2023/06/07 00:59:27;;;;;;;0.15;0.15;;;13.30;99.90;;;;;;5010342;28;20029;-65
2023/06/07 01:01:55;;;;;;;0.20;0.20;;;13.30;99.90;;;;;;5001717;28;20544;-65
2023/06/07 01:04:22;;;;;;;1.45;0.50;;;13.20;99.90;;;;;;5025561;28;20042;-65
2023/06/07 01:06:49;;;;;;;0.10;0.10;;;13.30;99.90;;;;;;5007412;28;20552;-65
2023/06/07 01:09:16;;;;;;;0.00;0.00;;;13.30;99.90;;;;;;5007078;28;20042;-65
2023/06/07 01:11:46;;;;;;;0.00;0.00;;;13.30;99.90;;;;;;5011686;28;20759;-65
2023/06/07 01:14:12;;;;;;;1.08;0.30;;;13.30;99.90;;;;;;5006506;28;20061;-65
2023/06/07 01:16:44;;;;;;;0.30;0.30;;;13.30;99.90;;;;;;5011077;28;20092;-65
2023/06/07 01:19:22;;;;;;;0.00;0.00;;;13.30;99.90;;;;;;5014573;28;20054;-65
2023/06/07 01:21:54;;;;;;;0.80;0.80;;;13.30;99.90;;;;;;5015405;28;20382;-65
2023/06/07 01:24:20;;;;;;;0.30;0.30;;;13.30;99.90;;;;;;5006231;28;20038;-65
2023/06/07 01:26:57;;;;;;;0.13;0.13;;;13.30;99.90;;;;;;5008513;28;20058;-65
2023/06/07 01:29:24;;;;;;;0.20;0.20;;;13.30;99.90;;;;;;5010173;28;20104;-65
2023/06/07 01:31:51;;;;;;;0.10;0.10;;;13.30;99.90;;;;;;5003690;28;20532;-65
2023/06/07 01:34:19;;;;;;;0.20;0.20;;;13.30;99.90;;;;;;5013961;28;20034;-65
2023/06/07 01:36:47;;;;;;;0.90;0.90;;;13.40;99.90;;;;;;5006207;28;20121;-65
2023/06/07 01:39:14;;;;;;;0.10;0.10;;;13.40;99.90;;;;;;5015448;28;20433;-65
2023/06/07 01:41:41;;;;;;;0.00;0.00;;;13.40;99.90;;;;;;5013760;28;20040;-65
2023/06/07 01:44:09;;;;;;;0.35;0.35;;;13.30;99.90;;;;;;5006731;28;20081;-65
2023/06/07 01:46:35;;;;;;;0.10;0.10;;;13.40;99.90;;;;;;5011224;28;20121;-65
2023/06/07 01:49:03;;;;;;;0.85;0.85;;;13.40;99.90;;;;;;5007049;28;20054;-65
2023/06/07 01:51:28;;;;;;;0.20;0.20;;;13.30;99.90;;;;;;5014385;28;20410;-65
2023/06/07 01:53:54;;;;;;;0.17;0.17;;;13.40;99.90;;;;;;5030374;28;20045;-65
2023/06/07 01:56:36;;;;;;;0.03;0.03;;;13.30;99.90;;;;;;5003052;28;20081;-65
2023/06/07 01:59:16;;;;;;;0.10;0.10;;;13.30;99.90;;;;;;5039322;28;20385;-65
2023/06/07 02:01:57;;;;;;;0.30;0.30;;;13.30;99.90;;;;;;5005288;28;20088;-65
2023/06/07 02:04:26;;;;;;;0.38;0.38;;;13.30;99.90;;;;;;5009458;28;20078;-65
2023/06/07 02:06:54;;;;;;;3.55;0.82;;;13.30;99.90;;;;;;5005113;28;20042;-65
2023/06/07 02:09:23;;;;;;;0.47;0.47;;;13.30;99.90;;;;;;5014896;28;20045;-65
2023/06/07 02:11:50;;;;;;;0.20;0.20;;;13.30;99.90;;;;;;5013981;28;20050;-65
2023/06/07 02:14:17;;;;;;;0.10;0.10;;;13.20;99.90;;;;;;5010491;28;20042;-65
2023/06/07 02:16:43;;;;;;;0.00;0.00;;;13.20;99.90;;;;;;5000534;28;20046;-65
2023/06/07 02:19:09;;;;;;;1.00;1.00;;;13.20;99.90;;;;;;5014073;28;20117;-65
2023/06/07 02:21:36;;;;;;;0.00;0.00;;;13.20;99.90;;;;;;5002110;28;20058;-65
2023/06/07 02:24:08;;;;;;;2.38;1.75;;;13.10;99.90;;;;;;5007326;28;20048;-65
2023/06/07 02:26:33;;;;;;;0.00;0.00;;;13.20;99.90;;;;;;5009198;28;20444;-65
2023/06/07 02:28:59;;;;;;;0.10;0.10;;;13.30;99.90;;;;;;5001975;28;20054;-65
2023/06/07 02:31:25;;;;;;;0.00;0.00;;;13.20;99.90;;;;;;5014490;28;20178;-65
2023/06/07 02:33:52;;;;;;;1.42;0.65;;;13.20;99.90;;;;;;5009499;28;20069;-65
2023/06/07 02:36:25;;;;;;;0.00;0.00;;;13.20;99.90;;;;;;5005356;28;20482;-65
2023/06/07 02:38:51;;;;;;;0.63;0.35;;;13.30;99.90;;;;;;5003230;28;20042;-65
2023/06/07 02:41:17;;;;;;;0.95;0.93;;;13.20;99.90;;;;;;5007330;28;20042;-65
2023/06/07 02:43:43;;;;;;;9.95;0.65;;;13.20;99.90;;;;;;5009851;28;20038;-65
2023/06/07 02:46:11;;;;;;;0.47;0.47;;;13.20;99.90;;;;;;5013589;28;20057;-65
2023/06/07 02:48:37;;;;;;;0.22;0.22;;;13.20;99.90;;;;;;5005429;28;20164;-65
2023/06/07 02:51:03;;;;;;;0.00;0.00;;;13.30;99.90;;;;;;5008751;28;20042;-65
2023/06/07 02:53:28;;;;;;;0.10;0.10;;;13.20;99.90;;;;;;5013810;28;20400;-65
2023/06/07 02:55:54;;;;;;;0.20;0.20;;;13.20;99.90;;;;;;5011935;28;20510;-65
2023/06/07 02:58:19;;;;;;;0.10;0.10;;;13.30;99.90;;;;;;5006142;28;20062;-65
2023/06/07 03:00:46;;;;;;;0.10;0.10;;;13.30;99.90;;;;;;5013058;28;20045;-65
2023/06/07 03:03:12;;;;;;;1.77;1.20;;;13.20;99.90;;;;;;5013503;28;20048;-65
2023/06/07 03:05:40;;;;;;;0.20;0.20;;;13.20;99.90;;;;;;5005197;28;20048;-65
2023/06/07 03:08:10;;;;;;;0.00;0.00;;;13.20;99.90;;;;;;5004089;28;20084;-65
2023/06/07 03:10:36;;;;;;;0.38;0.38;;;13.20;99.90;;;;;;4999348;28;20162;-65
2023/06/07 03:13:03;;;;;;;0.05;0.05;;;13.20;99.90;;;;;;5009183;28;20062;-65
2023/06/07 03:15:28;;;;;;;0.00;0.00;;;13.20;99.90;;;;;;5012354;28;20061;-65
2023/06/07 03:17:54;;;;;;;1.88;1.55;;;13.30;99.90;;;;;;5010464;28;20813;-65
2023/06/07 03:20:21;;;;;;;0.10;0.10;;;13.30;99.90;;;;;;5010788;28;20393;-65
2023/06/07 03:22:47;;;;;;;5.05;1.45;;;13.30;99.90;;;;;;5009433;28;20042;-65
2023/06/07 03:25:13;;;;;;;0.20;0.20;;;13.30;99.90;;;;;;5010659;28;20053;-65
2023/06/07 03:27:39;;;;;;;0.10;0.10;;;13.20;99.90;;;;;;5009774;28;20045;-65
2023/06/07 03:30:06;;;;;;;0.00;0.00;;;13.20;99.90;;;;;;5009471;28;20046;-65
2023/06/07 03:32:31;;;;;;;0.55;0.55;;;13.20;99.90;;;;;;5013126;28;20481;-65
2023/06/07 03:34:57;;;;;;;0.85;0.85;;;13.30;99.90;;;;;;5012767;28;20108;-65
2023/06/07 03:37:23;;;;;;;0.00;0.00;;;13.30;99.90;;;;;;5005025;28;20532;-65
2023/06/07 03:39:48;;;;;;;0.10;0.10;;;13.20;99.90;;;;;;5005139;28;20048;-65
2023/06/07 03:42:14;;;;;;;0.10;0.10;;;13.20;99.90;;;;;;5008294;28;20041;-66
2023/06/07 03:44:39;;;;;;;0.00;0.00;;;13.20;99.90;;;;;;5011703;28;20077;-66
2023/06/07 03:47:05;;;;;;;0.10;0.10;;;13.20;99.90;;;;;;5008259;28;20524;-65
2023/06/07 03:49:31;;;;;;;0.00;0.00;;;13.30;99.90;;;;;;5010372;28;20445;-65
2023/06/07 03:51:56;;;;;;;0.25;0.25;;;13.20;99.90;;;;;;5012269;28;20046;-65
2023/06/07 03:54:22;;;;;;;0.52;0.52;;;13.30;99.90;;;;;;5012531;28;20125;-66
2023/06/07 03:56:47;;;;;;;0.20;0.20;;;13.30;99.90;;;;;;5008731;28;20561;-66
2023/06/07 03:59:13;;;;;;;0.15;0.15;;;13.30;99.90;;;;;;5009156;28;20045;-65
2023/06/07 04:01:39;;;;;;;0.10;0.10;;;13.30;99.90;;;;;;5010035;28;20489;-66
2023/06/07 04:04:05;;;;;;;0.65;0.43;;;13.30;99.90;;;;;;5009943;28;20160;-65
2023/06/07 04:06:31;;;;;;;1.85;0.95;;;13.40;99.90;;;;;;5027491;28;20053;-65
2023/06/07 04:08:57;;;;;;;0.00;0.00;;;13.30;99.90;;;;;;5012690;28;20034;-66
2023/06/07 04:11:24;;;;;;;0.00;0.00;;;13.30;99.90;;;;;;5007004;28;20057;-66
2023/06/07 04:13:50;;;;;;;0.10;0.10;;;13.40;99.90;;;;;;5003003;28;20053;-65
2023/06/07 04:16:15;;;;;;;1.45;1.35;;;13.40;99.90;;;;;;5012545;28;20050;-66
2023/06/07 04:18:41;;;;;;;0.22;0.22;;;13.30;99.90;;;;;;5014695;28;20053;-65
2023/06/07 04:21:07;;;;;;;1.17;0.22;;;13.40;99.90;;;;;;5003747;28;20050;-65
2023/06/07 04:23:33;;;;;;;0.10;0.10;;;13.40;99.90;;;;;;5041804;28;20073;-66
2023/06/07 04:26:00;;;;;;;1.65;0.73;;;13.50;99.90;;;;;;5008852;28;20128;-65
2023/06/07 04:28:27;;;;;;;0.73;0.73;;;13.40;99.90;;;;;;4997200;28;20073;-65
2023/06/07 04:30:53;;;;;;;0.85;0.47;;;13.50;99.90;;;;;;5042857;28;20490;-65
2023/06/07 04:33:20;;;;;;;0.17;0.17;;;13.50;99.90;;;;;;5004212;28;20437;-65
2023/06/07 04:35:50;;;;;;;0.13;0.13;;;13.50;99.90;;;;;;5011862;28;20048;-65
2023/06/07 04:38:23;;;;;;;0.10;0.10;;;13.40;99.90;;;;;;5012165;28;20046;-65
2023/06/07 04:40:52;;;;;;;7.50;1.85;;;13.40;99.90;;;;;;5006585;28;20067;-65
2023/06/07 04:43:18;;;;;;;0.00;0.00;;;13.50;99.90;;;;;;4998772;28;20041;-65
2023/06/07 04:45:53;;;;;;;0.75;0.45;;;13.40;99.90;;;;;;5012077;28;20048;-66
2023/06/07 04:48:25;;;;;;;0.20;0.20;;;13.50;99.90;;;;;;5002302;28;20046;-65
2023/06/07 04:50:52;;;;;;;0.95;0.93;;;13.40;99.90;;;;;;5008712;28;20038;-66
2023/06/07 04:53:21;;;;;;;0.00;0.00;;;13.50;99.90;;;;;;5011030;28;20049;-66
2023/06/07 04:55:48;;;;;;;2.10;0.30;;;13.60;99.90;;;;;;4999050;28;20062;-66
2023/06/07 04:58:16;;;;;;;0.65;0.50;;;13.50;99.90;;;;;;5002095;28;20060;-65
2023/06/07 05:00:42;;;;;;;0.15;0.15;;;13.60;99.90;;;;;;5011277;28;20045;-65
2023/06/07 05:03:19;;;;;;;0.00;0.00;;;13.50;99.90;;;;;;5012182;28;20046;-65
2023/06/07 05:05:46;;;;;;;0.68;0.55;;;13.60;99.90;;;;;;5007677;28;20082;-65
2023/06/07 05:08:12;;;;;;;0.10;0.10;;;13.50;99.90;;;;;;5009855;28;20046;-65
2023/06/07 05:10:37;;;;;;;0.20;0.20;;;13.50;99.90;;;;;;5008254;28;20108;-66
2023/06/07 05:13:03;;;;;;;0.05;0.05;;;13.60;99.90;;;;;;5009504;28;20061;-66
2023/06/07 05:15:28;;;;;;;0.30;0.30;;;13.60;99.90;;;;;;4996965;28;20047;-65
2023/06/07 05:17:54;;;;;;;3.20;0.57;;;13.70;99.90;;;;;;5036409;28;20384;-66
2023/06/07 05:20:20;;;;;;;0.10;0.10;;;13.60;99.90;;;;;;5011554;28;20088;-66
2023/06/07 05:22:46;;;;;;;0.10;0.10;;;13.60;99.90;;;;;;5005953;28;20528;-66
2023/06/07 05:25:12;;;;;;;0.00;0.00;;;13.70;99.90;;;;;;5000096;28;20041;-66
2023/06/07 05:27:38;;;;;;;0.00;0.00;;;13.60;99.90;;;;;;5011439;28;20042;-65
2023/06/07 05:30:06;;;;;;;0.00;0.00;;;13.70;99.90;;;;;;5010803;28;20046;-65
2023/06/07 05:32:32;;;;;;;0.28;0.20;;;13.70;99.90;;;;;;4999021;28;20053;-66
2023/06/07 05:34:59;;;;;;;0.00;0.00;;;13.60;99.90;;;;;;5003881;28;20579;-65
2023/06/07 05:37:26;;;;;;;0.00;0.00;;;13.70;99.90;;;;;;5005219;28;20159;-65
2023/06/07 05:39:52;;;;;;;0.45;0.45;;;13.80;99.90;;;;;;5008185;28;20049;-66
2023/06/07 05:42:18;;;;;;;0.15;0.15;;;13.80;99.90;;;;;;5011445;28;20053;-65
2023/06/07 05:44:45;;;;;;;0.32;0.32;;;13.90;99.90;;;;;;5003436;28;20482;-65
2023/06/07 05:47:11;;;;;;;0.00;0.00;;;13.80;99.90;;;;;;5010178;28;20049;-66
2023/06/07 05:49:37;;;;;;;0.22;0.22;;;13.90;99.90;;;;;;4998768;28;20046;-65
2023/06/07 05:52:03;;;;;;;0.00;0.00;;;13.80;99.90;;;;;;5001747;28;20067;-66
2023/06/07 05:54:28;;;;;;;0.00;0.00;;;13.90;99.90;;;;;;5011528;28;20069;-66
2023/06/07 05:56:54;;;;;;;0.00;0.00;;;13.90;99.90;;;;;;5003851;28;20470;-65
2023/06/07 05:59:19;;;;;;;0.00;0.00;;;14.00;99.90;;;;;;4999240;28;20053;-66
2023/06/07 06:01:46;;;;;;;0.10;0.10;;;14.00;99.90;;;;;;5008052;28;20057;-66
2023/06/07 06:04:12;;;;;;;0.10;0.10;;;14.00;99.90;;;;;;5014297;28;20068;-66
2023/06/07 06:06:38;;;;;;;0.00;0.00;;;14.00;99.90;;;;;;5004917;28;20069;-66
2023/06/07 06:09:04;;;;;;;0.00;0.00;;;14.10;99.90;;;;;;5010050;28;20529;-66
2023/06/07 06:11:30;;;;;;;0.00;0.00;;;14.10;99.90;;;;;;5013636;28;20477;-66
2023/06/07 06:13:56;;;;;;;0.00;0.00;;;14.10;99.90;;;;;;5014675;28;20108;-66
2023/06/07 06:16:22;;;;;;;0.00;0.00;;;14.00;99.90;;;;;;5002234;28;20505;-65
2023/06/07 06:18:47;;;;;;;0.00;0.00;;;14.10;99.90;;;;;;5006718;28;20041;-66
2023/06/07 06:21:13;;;;;;;0.30;0.30;;;14.10;99.90;;;;;;5010975;28;20108;-65
2023/06/07 06:23:39;;;;;;;0.50;0.50;;;14.10;99.90;;;;;;5009349;28;20046;-66
2023/06/07 06:26:05;;;;;;;0.10;0.10;;;14.10;99.90;;;;;;4999861;28;20081;-66
2023/06/07 06:28:30;;;;;;;0.08;0.08;;;14.20;99.90;;;;;;5009738;28;20117;-66
2023/06/07 06:30:56;;;;;;;0.20;0.20;;;14.20;99.90;;;;;;5003816;28;20140;-65
2023/06/07 06:33:21;;;;;;;0.00;0.00;;;14.30;99.90;;;;;;5013804;28;20038;-65
2023/06/07 06:35:47;;;;;;;1.45;0.88;;;14.50;99.90;;;;;;5012752;28;20038;-65
2023/06/07 06:38:13;;;;;;;0.20;0.20;;;14.50;99.90;;;;;;5006350;28;20454;-66
2023/06/07 06:40:39;;;;;;;0.00;0.00;;;14.50;99.90;;;;;;5001743;28;20044;-66
2023/06/07 06:43:05;;;;;;;0.17;0.17;;;14.60;99.90;;;;;;5010106;28;20058;-65
2023/06/07 06:45:31;;;;;;;0.20;0.20;;;14.60;99.90;;;;;;5005278;28;20533;-66
2023/06/07 06:47:58;;;;;;;0.20;0.20;;;14.50;99.90;;;;;;5013196;28;20082;-66
2023/06/07 06:50:24;;;;;;;0.00;0.00;;;14.50;99.90;;;;;;5009535;28;20092;-66
2023/06/07 06:52:50;;;;;;;0.03;0.03;;;14.60;99.90;;;;;;5010069;28;20474;-66
2023/06/07 06:55:17;;;;;;;0.10;0.10;;;14.60;99.90;;;;;;5009743;28;20258;-66
2023/06/07 06:57:42;;;;;;;0.03;0.03;;;14.60;99.90;;;;;;5014011;28;20042;-66
2023/06/07 07:00:09;;;;;;;0.00;0.00;;;14.60;99.90;;;;;;5008930;28;20145;-66
2023/06/07 07:02:35;;;;;;;0.00;0.00;;;14.60;99.90;;;;;;5002591;28;20042;-66
2023/06/07 07:05:01;;;;;;;0.00;0.00;;;14.60;99.90;;;;;;5004277;28;20058;-66
2023/06/07 07:07:27;;;;;;;0.10;0.10;;;14.70;99.90;;;;;;5005771;28;20053;-65
2023/06/07 07:09:53;;;;;;;0.95;0.60;;;14.80;99.90;;;;;;5013351;28;20069;-66
2023/06/07 07:12:21;;;;;;;0.05;0.05;;;14.70;99.90;;;;;;5009027;28;20033;-66
2023/06/07 07:14:46;;;;;;;0.03;0.03;;;14.80;99.90;;;;;;5011269;28;20489;-66
2023/06/07 07:17:12;;;;;;;0.17;0.17;;;14.80;99.90;;;;;;5007501;28;20054;-66
2023/06/07 07:19:38;;;;;;;0.00;0.00;;;15.00;99.90;;;;;;5002491;28;20068;-66
2023/06/07 07:22:04;;;;;;;0.00;0.00;;;15.00;99.90;;;;;;5005849;28;20165;-66
2023/06/07 07:24:30;;;;;;;0.75;0.75;;;15.00;99.90;;;;;;5004897;28;20049;-66
2023/06/07 07:26:55;;;;;;;0.20;0.20;;;15.20;99.90;;;;;;5013309;28;20129;-66
2023/06/07 07:29:21;;;;;;;0.10;0.10;;;15.20;99.90;;;;;;5012271;28;20081;-66
2023/06/07 07:31:47;;;;;;;0.00;0.00;;;15.30;99.90;;;;;;5005912;28;20058;-66
2023/06/07 07:34:12;;;;;;;0.00;0.00;;;15.40;99.90;;;;;;4998684;28;20044;-66
2023/06/07 07:36:39;;;;;;;0.10;0.10;;;15.30;99.90;;;;;;5027672;28;20050;-65
2023/06/07 07:39:05;;;;;;;0.00;0.00;;;15.30;99.90;;;;;;5013280;28;20060;-66
2023/06/07 07:41:32;;;;;;;0.00;0.00;;;15.40;99.90;;;;;;5008897;28;20041;-66
2023/06/07 07:43:58;;;;;;;0.10;0.10;;;15.50;99.90;;;;;;5003930;28;20096;-66
2023/06/07 07:46:23;;;;;;;0.00;0.00;;;15.50;99.90;;;;;;5009584;28;20116;-66
2023/06/07 07:48:49;;;;;;;0.22;0.22;;;15.40;99.90;;;;;;5010733;28;20057;-66
2023/06/07 07:51:15;;;;;;;0.00;0.00;;;15.60;99.90;;;;;;5012028;28;20042;-66
2023/06/07 07:53:44;;;;;;;0.10;0.10;;;15.60;99.90;;;;;;5002653;28;20396;-66
2023/06/07 07:56:09;;;;;;;0.25;0.25;;;15.60;99.90;;;;;;5009608;28;20038;-66
2023/06/07 07:58:36;;;;;;;0.30;0.22;;;15.70;99.90;;;;;;5012680;28;20088;-66
2023/06/07 08:01:02;;;;;;;0.10;0.10;;;15.80;99.90;;;;;;5002934;28;20038;-65
2023/06/07 08:03:28;;;;;;;0.30;0.30;;;15.70;99.90;;;;;;5011463;28;20592;-66
2023/06/07 08:05:54;;;;;;;0.13;0.13;;;15.70;99.90;;;;;;5012720;28;20061;-66
2023/06/07 08:08:20;;;;;;;0.17;0.17;;;15.90;99.90;;;;;;5012784;28;20124;-66
2023/06/07 08:10:46;;;;;;;0.10;0.10;;;16.10;99.90;;;;;;5000271;28;20050;-65
2023/06/07 08:13:12;;;;;;;0.20;0.20;;;16.20;99.90;;;;;;5009033;28;20052;-66
2023/06/07 08:15:38;;;;;;;0.10;0.10;;;16.20;99.90;;;;;;5012483;28;20056;-66
2023/06/07 08:18:04;;;;;;;0.20;0.20;;;16.10;99.90;;;;;;5001608;28;20524;-66
2023/06/07 08:20:30;;;;;;;0.10;0.10;;;16.10;99.90;;;;;;5010379;28;20058;-65
2023/06/07 08:22:55;;;;;;;0.10;0.10;;;16.10;99.90;;;;;;5008188;28;20049;-65
2023/06/07 08:25:21;;;;;;;0.20;0.20;;;16.20;99.90;;;;;;4997630;28;20038;-65
2023/06/07 08:27:47;;;;;;;0.15;0.15;;;16.10;99.90;;;;;;5009327;28;20050;-65
2023/06/07 08:30:13;;;;;;;0.45;0.45;;;16.00;99.90;;;;;;5019306;28;20053;-66
2023/06/07 08:32:39;;;;;;;1.00;0.32;;;16.20;99.90;;;;;;5005609;28;20057;-65
2023/06/07 08:35:06;;;;;;;0.28;0.28;;;16.20;99.90;;;;;;5010930;28;20470;-65
2023/06/07 08:37:32;;;;;;;0.55;0.55;;;16.40;99.90;;;;;;5012332;28;20370;-65
2023/06/07 08:39:57;;;;;;;0.00;0.00;;;16.80;99.90;;;;;;4998989;28;20129;-65
2023/06/07 08:42:23;;;;;;;0.22;0.22;;;16.90;99.90;;;;;;5005450;28;20088;-65
2023/06/07 08:44:49;;;;;;;0.15;0.15;;;16.90;99.90;;;;;;5009532;28;20041;-65
2023/06/07 08:47:17;;;;;;;2.00;0.95;;;16.90;99.90;;;;;;5039705;28;20046;-65
2023/06/07 08:49:46;;;;;;;0.00;0.00;;;16.70;99.90;;;;;;5007689;28;20049;-65
2023/06/07 08:52:12;;;;;;;0.00;0.00;;;16.80;99.90;;;;;;5008261;28;20522;-65
2023/06/07 08:54:42;;;;;;;0.65;0.65;;;16.80;99.90;;;;;;5011386;28;20076;-65
2023/06/07 08:57:09;;;;;;;0.32;0.32;;;16.80;99.90;;;;;;5011249;28;20046;-65
2023/06/07 08:59:36;;;;;;;0.10;0.10;;;16.90;99.90;;;;;;4997665;28;21163;-65
2023/06/07 09:02:04;;;;;;;0.45;0.45;;;16.90;99.90;;;;;;5008001;28;20077;-65
2023/06/07 09:04:30;;;;;;;0.47;0.47;;;17.00;99.90;;;;;;5011628;28;20049;-65
2023/06/07 09:06:55;;;;;;;0.30;0.30;;;17.00;99.90;;;;;;5007059;28;20509;-65
2023/06/07 09:09:21;;;;;;;0.00;0.00;;;16.90;99.90;;;;;;5001145;28;20054;-65
2023/06/07 09:11:53;;;;;;;1.27;1.17;;;17.00;99.90;;;;;;5011734;28;20077;-65
2023/06/07 09:14:18;;;;;;;0.00;0.00;;;17.20;99.90;;;;;;5007088;28;20054;-65
2023/06/07 09:16:58;;;;;;;0.10;0.10;;;17.40;99.90;;;;;;5003200;28;20379;-65
2023/06/07 09:19:39;;;;;;;1.27;0.82;;;17.30;99.90;;;;;;5003674;28;20401;-65
2023/06/07 09:22:09;;;;;;;0.20;0.20;;;17.40;99.90;;;;;;5004339;28;20057;-65
2023/06/07 09:24:35;;;;;;;0.80;0.68;;;17.30;99.90;;;;;;5009856;28;20044;-65
2023/06/07 09:27:02;;;;;;;0.52;0.32;;;17.50;99.90;;;;;;5009168;28;20125;-65
2023/06/07 09:29:29;;;;;;;0.20;0.20;;;17.60;99.90;;;;;;5008823;28;20097;-66
2023/06/07 09:32:19;;;;;;;0.10;0.10;;;17.50;99.90;;;;;;5003033;28;20363;-65
2023/06/07 09:34:45;;;;;;;4.90;1.45;;;17.60;99.90;;;;;;5014283;28;20038;-65
2023/06/07 09:37:12;;;;;;;8.55;2.25;;;17.50;99.90;;;;;;5015290;28;20045;-66
2023/06/07 09:39:38;;;;;;;0.00;0.00;;;17.60;99.90;;;;;;5010918;28;20371;-65
2023/06/07 09:42:14;;;;;;;7.25;2.33;;;17.60;99.90;;;;;;5002905;28;20050;-65
2023/06/07 09:44:41;;;;;;;0.00;0.00;;;18.00;99.90;;;;;;5030768;28;20133;-66
2023/06/07 09:47:18;;;;;;;0.00;0.00;;;18.30;99.90;;;;;;5010720;28;20105;-65
2023/06/07 09:49:44;;;;;;;1.65;0.43;;;18.60;99.90;;;;;;5007008;28;20038;-65
2023/06/07 09:52:15;;;;;;;0.20;0.20;;;18.90;99.90;;;;;;5010430;28;20453;-66
2023/06/07 09:54:45;;;;;;;0.08;0.08;;;19.00;99.90;;;;;;5006530;28;20034;-65
2023/06/07 09:57:27;;;;;;;2.42;1.23;;;19.20;99.90;;;;;;5010403;28;20042;-66
2023/06/07 10:00:04;;;;;;;0.00;0.00;;;19.50;99.90;;;;;;5045112;28;20056;-66
2023/06/07 10:02:30;;;;;;;0.30;0.20;;;19.60;99.90;;;;;;5009312;28;20529;-65
2023/06/07 10:04:57;;;;;;;0.00;0.00;;;19.70;99.90;;;;;;5017832;28;20122;-66
2023/06/07 10:07:23;;;;;;;2.50;0.85;;;19.70;99.90;;;;;;5014578;28;20068;-66
2023/06/07 10:09:57;;;;;;;0.00;0.00;;;19.70;99.90;;;;;;5011033;28;20442;-65
2023/06/07 10:12:31;;;;;;;0.00;0.00;;;19.80;99.90;;;;;;5012354;28;20071;-66
2023/06/07 10:15:02;;;;;;;0.10;0.10;;;19.70;99.90;;;;;;5021152;28;20050;-65
2023/06/07 10:17:59;;;;;;;0.10;0.10;;;19.80;99.90;;;;;;5002997;28;20493;-65
2023/06/07 10:20:34;;;;;;;0.00;0.00;;;19.80;99.90;;;;;;5011385;28;20053;-66
2023/06/07 10:23:05;;;;;;;0.00;0.00;;;20.10;99.90;;;;;;5003072;28;20038;-65
2023/06/07 10:25:41;;;;;;;0.05;0.05;;;20.20;99.90;;;;;;5005961;28;20114;-66
2023/06/07 10:28:11;;;;;;;0.00;0.00;;;20.20;99.90;;;;;;5003905;28;20381;-66
2023/06/07 10:30:43;;;;;;;0.65;0.65;;;20.20;99.90;;;;;;5011360;28;20042;-65
2023/06/07 10:33:10;;;;;;;0.03;0.03;;;20.20;99.90;;;;;;5011717;28;20125;-65
2023/06/07 10:35:38;;;;;;;0.00;0.00;;;20.30;99.90;;;;;;5014130;28;20046;-65
2023/06/07 10:38:03;;;;;;;0.00;0.00;;;20.40;99.90;;;;;;5006432;28;20567;-65
2023/06/07 10:40:31;;;;;;;0.10;0.10;;;20.40;99.90;;;;;;5001234;28;20102;-66
2023/06/07 10:42:58;;;;;;;0.10;0.10;;;20.40;99.90;;;;;;5014073;28;20062;-65
2023/06/07 10:45:24;;;;;;;0.00;0.00;;;20.40;99.90;;;;;;5010364;28;20041;-65
2023/06/07 10:47:50;;;;;;;0.10;0.10;;;20.40;99.90;;;;;;5002603;28;20481;-66
2023/06/07 10:50:27;;;;;;;0.52;0.35;;;20.60;99.90;;;;;;5013497;28;20049;-66
2023/06/07 10:53:00;;;;;;;0.95;0.32;;;20.60;99.90;;;;;;5013018;28;20105;-66
2023/06/07 10:55:31;;;;;;;;;;;20.60;99.90;;;;;;5006813;28;20060;-65
2023/06/07 10:58:00;;;;;;;0.10;0.10;;;20.70;99.90;;;;;;5005962;28;20015;-65
2023/06/07 11:00:31;;;;;;;0.00;0.00;;;20.60;99.90;;;;;;5036710;28;20046;-66
2023/06/07 11:03:06;;;;;;;0.13;0.10;;;20.60;99.90;;;;;;5013952;28;20436;-65
2023/06/07 11:05:53;;;;;;;0.45;0.45;;;20.60;99.90;;;;;;5002187;28;20486;-66
2023/06/07 11:08:27;;;;;;;0.30;0.30;;;20.90;99.90;;;;;;5008616;28;20044;-65
2023/06/07 11:11:00;;;;;;;0.03;0.03;;;21.00;99.90;;;;;;5011618;28;20045;-65
2023/06/07 11:13:46;;;;;;;0.00;0.00;;;21.00;99.90;;;;;;5012949;28;20096;-65
2023/06/07 11:16:24;;;;;;;0.17;0.17;;;21.30;99.90;;;;;;5013419;28;20048;-65
2023/06/07 11:19:05;;;;;;;0.15;0.15;;;21.40;99.90;;;;;;5006343;28;20112;-65
2023/06/07 11:21:53;;;;;;;0.08;0.08;;;21.50;99.90;;;;;;5001867;28;20093;-65
2023/06/07 11:24:20;;;;;;;0.00;0.00;;;21.60;99.90;;;;;;5008790;28;20054;-66
2023/06/07 11:26:47;;;;;;;0.10;0.10;;;21.50;99.90;;;;;;5008604;28;20078;-65
2023/06/07 11:29:15;;;;;;;0.30;0.30;;;21.40;99.90;;;;;;5009788;28;20061;-66
2023/06/07 11:31:41;;;;;;;0.20;0.00;;;21.70;99.90;;;;;;5010722;28;20112;-66
2023/06/07 11:34:06;;;;;;;0.35;0.35;;;21.90;99.90;;;;;;5007227;28;20054;-65
2023/06/07 11:36:32;;;;;;;0.00;0.00;;;21.90;99.90;;;;;;4993639;28;20097;-65
2023/06/07 11:39:01;;;;;;;0.63;0.45;;;22.00;99.90;;;;;;5011789;28;20050;-65
2023/06/07 11:41:27;;;;;;;0.50;0.50;;;22.00;99.90;;;;;;5012182;28;20524;-65
2023/06/07 11:43:56;;;;;;;0.20;0.20;;;21.90;99.90;;;;;;5008634;28;20041;-65
2023/06/07 11:46:22;;;;;;;0.10;0.10;;;22.20;99.90;;;;;;5004720;28;20048;-65
2023/06/07 11:48:47;;;;;;;0.00;0.00;;;22.20;99.90;;;;;;5000779;28;20034;-65
2023/06/07 11:51:13;;;;;;;0.00;0.00;;;22.40;99.90;;;;;;5004524;28;20038;-66
2023/06/07 11:53:39;;;;;;;0.10;0.10;;;22.40;99.90;;;;;;5012655;28;20041;-65
2023/06/07 11:56:04;;;;;;;0.10;0.10;;;22.30;99.90;;;;;;5000598;28;20057;-65
2023/06/07 11:58:30;;;;;;;0.32;0.32;;;22.50;99.90;;;;;;5005841;28;20034;-65
2023/06/07 12:00:57;;;;;;;6.68;0.52;;;22.50;99.90;;;;;;5012530;28;20379;-65
2023/06/07 12:03:24;;;;;;;0.10;0.10;;;22.50;99.90;;;;;;5010421;28;20057;-65
2023/06/07 12:05:50;;;;;;;0.55;0.15;;;22.70;99.90;;;;;;4999917;28;20520;-66
2023/06/07 12:08:17;;;;;;;1.35;0.93;;;23.00;99.90;;;;;;5010109;28;20437;-65
2023/06/07 12:10:51;;;;;;;0.05;0.05;;;22.80;99.90;;;;;;5000136;28;20038;-65
2023/06/07 12:13:18;;;;;;;0.30;0.22;;;22.80;99.90;;;;;;5009753;28;20104;-65
2023/06/07 12:15:55;;;;;;;0.00;0.00;;;22.80;99.90;;;;;;5002722;28;20038;-65
2023/06/07 12:18:24;;;;;;;0.20;0.20;;;22.80;99.90;;;;;;4997242;28;20046;-65
2023/06/07 12:21:08;;;;;;;3.72;1.38;;;23.10;99.90;;;;;;5004524;28;20052;-65
2023/06/07 12:23:35;;;;;;;0.00;0.00;;;23.10;99.90;;;;;;5003894;28;20050;-65
2023/06/07 12:26:09;;;;;;;15.88;0.80;;;23.10;99.90;;;;;;5012453;28;20046;-65
2023/06/07 12:28:35;;;;;;;0.95;0.43;;;23.20;99.90;;;;;;5007898;28;20791;-65
2023/06/07 12:31:01;;;;;;;0.00;0.00;;;23.10;99.90;;;;;;5003861;28;20117;-66
2023/06/07 12:33:28;;;;;;;0.00;0.00;;;23.30;99.90;;;;;;5005943;28;20054;-65
2023/06/07 12:35:57;;;;;;;0.10;0.10;;;23.40;99.90;;;;;;5006803;28;20053;-66
2023/06/07 12:38:24;;;;;;;0.30;0.30;;;23.40;99.90;;;;;;5011610;28;20073;-65
2023/06/07 12:40:50;;;;;;;0.85;0.70;;;23.40;99.90;;;;;;5011777;28;20049;-66
2023/06/07 12:43:16;;;;;;;1.40;1.13;;;23.50;99.90;;;;;;5002927;28;20034;-66
2023/06/07 12:45:41;;;;;;;1.75;1.25;;;23.20;99.90;;;;;;5006847;28;20378;-66
2023/06/07 12:48:07;;;;;;;0.52;0.40;;;23.70;99.90;;;;;;5001741;28;20135;-66
2023/06/07 12:50:33;;;;;;;0.70;0.65;;;23.70;99.90;;;;;;5006554;28;20038;-66